Time;durP1;ratioP1;P1;durP2;ratioP2;P2;SDS_P1;SDS_P2;PMS_P1;PMS_P2;Temp;Humidity;BMP_temperature;BMP_pressure;BME280_temperature;BME280_humidity;BME280_pressure;Samples;Min_cycle;Max_cycle;Signal;HPM_P1;HPM_P2
2023/10/05 00:00:47;;;;;;;2.22;1.27;;;20.50;82.40;;;;;;10828202;33;20039;-74
2023/10/05 00:06:53;;;;;;;2.45;1.73;;;20.50;82.40;;;;;;10829204;33;20334;-74
2023/10/05 00:13:00;;;;;;;3.67;2.25;;;20.40;82.60;;;;;;10827975;33;20039;-74
2023/10/05 00:19:12;;;;;;;4.37;2.47;;;20.50;82.60;;;;;;10827889;33;20043;-74
2023/10/05 00:25:17;;;;;;;4.55;2.17;;;20.40;82.40;;;;;;10826467;32;20318;-74
2023/10/05 00:31:24;;;;;;;4.03;1.75;;;20.40;82.50;;;;;;10811174;33;20043;-74
2023/10/05 00:37:26;;;;;;;4.65;1.30;;;20.40;82.60;;;;;;10813995;33;20024;-74
2023/10/05 00:43:28;;;;;;;2.10;1.30;;;20.40;82.40;;;;;;10813714;32;20047;-74
2023/10/05 00:49:42;;;;;;;1.67;1.00;;;20.40;82.60;;;;;;10827046;33;20417;-74
2023/10/05 00:55:51;;;;;;;2.78;1.60;;;20.30;82.60;;;;;;10827631;33;20386;-74
2023/10/05 01:08:13;;;;;;;4.53;1.60;;;20.20;82.50;;;;;;10826184;33;20028;-74
2023/10/05 01:14:16;;;;;;;1.98;1.73;;;20.20;82.50;;;;;;10826311;33;20042;-74
2023/10/05 01:20:23;;;;;;;2.05;1.55;;;20.20;82.50;;;;;;10813624;33;20070;-74
2023/10/05 01:26:25;;;;;;;2.70;1.50;;;20.30;82.60;;;;;;10825053;33;20538;-74
2023/10/05 01:32:27;;;;;;;2.55;1.52;;;20.30;82.60;;;;;;10825696;33;20047;-74
2023/10/05 01:38:37;;;;;;;2.05;1.30;;;20.30;82.50;;;;;;10825207;32;20338;-74
2023/10/05 01:44:49;;;;;;;4.28;1.73;;;20.30;82.40;;;;;;10812955;32;20067;-74
2023/10/05 01:50:51;;;;;;;4.68;2.15;;;20.20;82.50;;;;;;10825089;33;20050;-74
2023/10/05 01:56:55;;;;;;;2.33;1.58;;;20.20;82.50;;;;;;10808983;32;20039;-74
2023/10/05 02:02:57;;;;;;;1.73;1.48;;;20.20;82.50;;;;;;10825598;33;20039;-74
2023/10/05 02:08:59;;;;;;;2.85;1.60;;;20.10;82.40;;;;;;10824772;33;20059;-74
2023/10/05 02:15:13;;;;;;;2.30;1.62;;;20.00;82.40;;;;;;10824725;33;20034;-74
2023/10/05 02:21:30;;;;;;;3.90;2.03;;;20.00;82.40;;;;;;10824241;33;20321;-74
2023/10/05 02:27:32;;;;;;;3.08;2.00;;;20.00;82.40;;;;;;10823043;33;20050;-74
2023/10/05 02:33:37;;;;;;;3.25;1.98;;;19.90;82.40;;;;;;10811640;33;20358;-75
2023/10/05 02:39:41;;;;;;;3.35;1.95;;;19.80;82.40;;;;;;10825382;33;20043;-75
2023/10/05 02:45:44;;;;;;;3.65;2.10;;;19.80;82.50;;;;;;10809690;33;20028;-75
2023/10/05 02:51:46;;;;;;;2.15;1.83;;;19.80;82.50;;;;;;10814810;33;20074;-75
2023/10/05 02:57:48;;;;;;;2.22;1.75;;;19.70;82.50;;;;;;10830843;33;20333;-75
2023/10/05 03:03:54;;;;;;;2.70;1.90;;;19.60;82.60;;;;;;10830074;33;20074;-75
2023/10/05 03:09:59;;;;;;;6.25;2.80;;;19.50;82.70;;;;;;10830989;33;20020;-75
2023/10/05 03:16:06;;;;;;;3.33;2.25;;;19.40;82.70;;;;;;10828943;33;20063;-75
2023/10/05 03:22:12;;;;;;;2.85;1.80;;;19.50;82.70;;;;;;10829370;33;20020;-75
2023/10/05 03:28:14;;;;;;;3.25;2.00;;;19.50;82.50;;;;;;10829272;33;20529;-75
2023/10/05 03:34:16;;;;;;;2.85;2.03;;;19.40;82.50;;;;;;10830046;33;20101;-75
2023/10/05 03:40:27;;;;;;;2.67;1.62;;;19.30;82.50;;;;;;10825738;33;20425;-75
2023/10/05 03:46:30;;;;;;;2.90;2.25;;;19.30;82.50;;;;;;10829293;33;20479;-75
2023/10/05 03:52:35;;;;;;;3.15;2.17;;;19.30;82.50;;;;;;10827748;33;20051;-75
2023/10/05 03:58:39;;;;;;;2.67;2.08;;;19.30;82.50;;;;;;10825006;33;20330;-75
2023/10/05 04:04:42;;;;;;;3.00;2.42;;;19.30;82.70;;;;;;10828028;33;20393;-75
2023/10/05 04:10:49;;;;;;;3.17;2.05;;;19.30;82.60;;;;;;10828436;33;20012;-75
2023/10/05 04:16:53;;;;;;;3.28;1.85;;;19.30;82.60;;;;;;10828938;33;20042;-75
2023/10/05 04:22:56;;;;;;;2.40;1.85;;;19.20;82.60;;;;;;10827549;33;20021;-75
2023/10/05 04:29:28;;;;;;;3.85;2.62;;;19.10;82.80;;;;;;10826958;33;20020;-75
2023/10/05 04:35:38;;;;;;;3.90;2.20;;;19.20;82.70;;;;;;10904153;32;20058;-75
2023/10/05 04:41:55;;;;;;;4.40;2.55;;;19.10;82.70;;;;;;10891819;32;20024;-75
2023/10/05 04:47:58;;;;;;;3.00;1.90;;;19.20;82.70;;;;;;10903258;32;20062;-76
2023/10/05 04:54:01;;;;;;;3.40;2.70;;;19.10;82.80;;;;;;10902962;32;20031;-75
2023/10/05 05:00:49;;;;;;;3.00;2.28;;;19.20;82.90;;;;;;10903169;32;20047;-75
2023/10/05 05:06:32;;;;;;;2.53;1.95;;;19.10;82.80;;;;;;10902789;32;20428;-75
2023/10/05 05:12:35;;;;;;;2.83;1.75;;;19.10;82.90;;;;;;10810028;32;20043;-75
2023/10/05 05:18:37;;;;;;;3.42;2.28;;;19.10;82.90;;;;;;10789347;33;20025;-75
2023/10/05 05:24:41;;;;;;;1.98;1.70;;;19.10;82.80;;;;;;10789338;33;20066;-75
2023/10/05 05:30:43;;;;;;;6.32;2.90;;;19.10;82.90;;;;;;10775921;33;20046;-75
2023/10/05 05:36:45;;;;;;;3.85;2.10;;;19.10;83.00;;;;;;10788497;33;20063;-75
2023/10/05 05:42:52;;;;;;;3.67;2.47;;;19.10;83.00;;;;;;10788119;33;20055;-75
2023/10/05 05:49:16;;;;;;;2.72;2.12;;;19.00;83.00;;;;;;10801856;33;20051;-75
2023/10/05 05:55:20;;;;;;;2.97;1.60;;;19.00;83.00;;;;;;10824095;33;20054;-75
2023/10/05 06:01:23;;;;;;;4.80;2.35;;;19.10;82.90;;;;;;10821961;33;20047;-75
2023/10/05 06:07:25;;;;;;;2.33;1.83;;;19.10;83.00;;;;;;10823152;33;20031;-75
2023/10/05 06:13:27;;;;;;;3.28;1.77;;;19.20;82.90;;;;;;10824109;33;20016;-75
2023/10/05 06:19:30;;;;;;;2.95;1.70;;;19.20;83.10;;;;;;10825242;33;20055;-75
2023/10/05 06:25:32;;;;;;;2.92;1.70;;;19.30;82.90;;;;;;10823128;33;20042;-75
2023/10/05 06:31:37;;;;;;;3.65;2.65;;;19.40;82.90;;;;;;10824093;33;20032;-75
2023/10/05 06:37:41;;;;;;;3.00;1.80;;;19.40;82.90;;;;;;10825175;33;20060;-75
2023/10/05 06:43:43;;;;;;;2.10;1.45;;;19.40;83.00;;;;;;10825170;33;20020;-75
2023/10/05 06:49:47;;;;;;;5.50;2.62;;;19.50;83.00;;;;;;10907808;27;20038;-76
2023/10/05 06:55:49;;;;;;;2.87;1.55;;;19.50;83.10;;;;;;10978707;32;20049;-75
2023/10/05 07:01:52;;;;;;;4.70;2.37;;;19.50;83.20;;;;;;10962542;32;20444;-76
2023/10/05 07:07:54;;;;;;;3.75;2.08;;;19.60;83.20;;;;;;10979245;32;20033;-75
2023/10/05 07:13:56;;;;;;;2.80;1.70;;;19.70;83.20;;;;;;10964924;32;20030;-76
2023/10/05 07:19:59;;;;;;;2.25;1.40;;;19.80;83.50;;;;;;10979056;32;20321;-75
2023/10/05 07:26:01;;;;;;;1.90;1.20;;;19.80;83.30;;;;;;10975733;32;20049;-75
2023/10/05 07:32:06;;;;;;;2.97;2.05;;;19.90;83.30;;;;;;10963891;32;20415;-75
2023/10/05 07:38:11;;;;;;;1.98;1.70;;;20.00;83.10;;;;;;10983828;32;20018;-75
2023/10/05 07:44:13;;;;;;;3.15;2.12;;;20.00;83.40;;;;;;10986077;32;20049;-76
2023/10/05 07:50:15;;;;;;;2.20;1.98;;;20.10;83.60;;;;;;10984631;32;20046;-75
2023/10/05 07:56:18;;;;;;;3.80;2.10;;;20.20;83.80;;;;;;10984966;32;20057;-75
2023/10/05 08:02:20;;;;;;;3.92;2.50;;;20.30;83.60;;;;;;10984439;32;20404;-75
2023/10/05 08:08:22;;;;;;;4.18;1.73;;;20.30;83.30;;;;;;10969535;32;20321;-75
2023/10/05 08:14:24;;;;;;;4.78;2.42;;;20.40;83.20;;;;;;10983761;32;20049;-75
2023/10/05 08:20:27;;;;;;;3.87;2.10;;;20.40;82.70;;;;;;10969849;32;20053;-75
2023/10/05 08:26:29;;;;;;;1.65;1.50;;;20.50;82.20;;;;;;10983264;32;20134;-76
2023/10/05 08:32:36;;;;;;;3.03;1.70;;;20.70;82.70;;;;;;10983451;32;20419;-76
2023/10/05 08:38:39;;;;;;;2.05;1.73;;;20.70;81.70;;;;;;10968449;32;20353;-76
2023/10/05 08:44:45;;;;;;;2.70;1.58;;;20.80;81.80;;;;;;10981512;32;20419;-75
2023/10/05 08:50:54;;;;;;;3.40;2.03;;;20.90;81.50;;;;;;10982236;32;20397;-76
2023/10/05 08:56:58;;;;;;;2.92;1.73;;;21.00;80.60;;;;;;10955744;32;20045;-76
2023/10/05 09:03:00;;;;;;;3.15;1.58;;;21.10;80.40;;;;;;10981856;32;20088;-76
2023/10/05 09:21:19;;;;;;;5.62;2.15;;;21.30;79.40;;;;;;10982763;32;20041;-75
2023/10/05 09:27:23;;;;;;;2.05;1.40;;;21.40;79.30;;;;;;10982168;32;20014;-76
2023/10/05 09:33:36;;;;;;;2.57;1.37;;;21.50;79.10;;;;;;10980698;32;20045;-76
2023/10/05 09:39:54;;;;;;;5.78;1.95;;;21.50;77.80;;;;;;10980447;32;20011;-75
2023/10/05 09:45:57;;;;;;;3.83;2.17;;;21.70;77.40;;;;;;10979997;32;20023;-76
2023/10/05 09:52:00;;;;;;;3.55;1.80;;;21.80;77.00;;;;;;10964685;32;20153;-77
2023/10/05 09:58:12;;;;;;;3.33;2.37;;;21.80;76.60;;;;;;10976220;32;20328;-75
2023/10/05 10:04:28;;;;;;;3.28;1.73;;;22.00;76.20;;;;;;10979654;32;20062;-75
2023/10/05 10:10:31;;;;;;;3.83;2.28;;;22.10;75.60;;;;;;10966594;32;20050;-76
2023/10/05 10:16:34;;;;;;;3.37;1.87;;;22.20;75.00;;;;;;10979168;32;20061;-77
2023/10/05 10:22:50;;;;;;;4.20;1.95;;;22.30;74.50;;;;;;10974563;32;20007;-75
2023/10/05 10:34:55;;;;;;;3.53;1.80;;;22.60;72.90;;;;;;10978602;32;20329;-75
2023/10/05 10:41:07;;;;;;;3.20;2.03;;;22.70;72.60;;;;;;10980084;32;20011;-74
2023/10/05 10:47:14;;;;;;;3.95;2.45;;;22.90;71.20;;;;;;10978936;32;20427;-74
2023/10/05 10:53:17;;;;;;;5.43;2.40;;;23.00;71.10;;;;;;10961414;32;20022;-74
2023/10/05 10:59:26;;;;;;;4.03;1.70;;;23.10;70.60;;;;;;10978959;32;20042;-74
2023/10/05 11:05:51;;;;;;;2.50;1.67;;;23.30;70.50;;;;;;10975229;32;20027;-75
2023/10/05 11:11:53;;;;;;;4.95;2.80;;;23.50;69.20;;;;;;10983809;32;20027;-74
2023/10/05 11:17:59;;;;;;;3.72;2.25;;;23.80;67.90;;;;;;10971666;32;20034;-76
2023/10/05 11:24:06;;;;;;;2.37;1.40;;;23.90;67.60;;;;;;10971814;32;20060;-76
2023/10/05 11:30:13;;;;;;;2.97;1.65;;;24.00;67.40;;;;;;10986265;32;20294;-76
2023/10/05 11:36:27;;;;;;;4.00;1.52;;;24.20;66.10;;;;;;10981714;32;20062;-74
2023/10/05 11:42:35;;;;;;;6.43;2.17;;;24.20;65.20;;;;;;10981511;32;20393;-75
2023/10/05 11:48:48;;;;;;;3.70;2.03;;;24.30;65.30;;;;;;10971730;32;20050;-75
2023/10/05 11:54:51;;;;;;;3.55;2.15;;;24.30;64.70;;;;;;10984332;32;20038;-76
2023/10/05 12:00:54;;;;;;;4.35;2.58;;;24.40;64.30;;;;;;10957342;32;20341;-75
2023/10/05 12:06:59;;;;;;;6.30;2.60;;;24.50;64.20;;;;;;10983714;32;20011;-75
2023/10/05 12:13:02;;;;;;;4.87;2.22;;;24.50;63.90;;;;;;10983851;32;20015;-73
2023/10/05 12:19:13;;;;;;;9.75;3.22;;;24.50;63.70;;;;;;10983068;32;20041;-74
2023/10/05 12:25:24;;;;;;;5.20;3.50;;;24.30;62.70;;;;;;10982110;32;20014;-74
2023/10/05 12:31:26;;;;;;;5.62;2.30;;;24.30;62.60;;;;;;10969870;32;20014;-74
2023/10/05 12:37:29;;;;;;;5.10;2.47;;;24.30;61.40;;;;;;10983189;32;20389;-75
2023/10/05 12:43:31;;;;;;;6.10;3.12;;;24.20;61.30;;;;;;10980164;32;20027;-74
2023/10/05 12:49:34;;;;;;;4.80;2.92;;;24.30;61.70;;;;;;10979125;32;20045;-74
2023/10/05 12:55:37;;;;;;;5.80;2.92;;;24.30;60.50;;;;;;10982314;32;20294;-74
2023/10/05 13:01:41;;;;;;;6.72;2.83;;;24.30;60.40;;;;;;10968231;32;20435;-74
2023/10/05 13:07:44;;;;;;;4.12;2.08;;;24.20;60.20;;;;;;10963204;32;20439;-74
2023/10/05 13:13:57;;;;;;;7.65;3.03;;;24.30;60.20;;;;;;10982414;32;20007;-74
2023/10/05 13:20:00;;;;;;;2.65;1.90;;;24.30;60.00;;;;;;10964724;32;20064;-74
2023/10/05 13:26:06;;;;;;;3.00;1.95;;;24.30;60.40;;;;;;10978697;32;20468;-74
2023/10/05 13:32:12;;;;;;;6.93;3.85;;;24.30;60.60;;;;;;10928661;32;20337;-74
2023/10/05 13:38:17;;;;;;;6.07;3.00;;;24.40;60.00;;;;;;10943370;32;20015;-75
2023/10/05 13:44:20;;;;;;;5.68;3.35;;;24.30;60.10;;;;;;10943503;32;20019;-75
2023/10/05 13:50:40;;;;;;;4.40;2.80;;;24.30;59.60;;;;;;10942582;32;20030;-74
2023/10/05 13:56:42;;;;;;;3.85;2.37;;;24.40;59.50;;;;;;10941988;32;20053;-74
2023/10/05 14:02:49;;;;;;;8.63;2.85;;;24.50;59.80;;;;;;10941887;32;20066;-75
2023/10/05 14:08:53;;;;;;;4.68;2.97;;;24.60;59.80;;;;;;10927617;32;20056;-75
2023/10/05 14:15:04;;;;;;;5.72;3.45;;;24.50;59.40;;;;;;10940939;32;20302;-75
2023/10/05 14:21:06;;;;;;;5.95;2.92;;;24.60;59.60;;;;;;10941131;32;20049;-75
2023/10/05 14:27:10;;;;;;;5.65;3.35;;;24.70;59.80;;;;;;10937575;32;20015;-75
2023/10/05 14:33:19;;;;;;;3.53;2.08;;;24.80;60.00;;;;;;10941202;32;20023;-75
2023/10/05 14:39:37;;;;;;;4.90;2.92;;;24.80;60.00;;;;;;10927115;32;20077;-74
2023/10/05 14:45:48;;;;;;;5.53;3.25;;;24.90;60.10;;;;;;10941266;32;20027;-75
2023/10/05 14:52:00;;;;;;;3.62;2.40;;;24.90;59.80;;;;;;10847679;27;20028;-75
2023/10/05 14:58:08;;;;;;;4.40;2.75;;;24.90;59.70;;;;;;10830155;33;20043;-75
2023/10/05 15:04:13;;;;;;;4.68;2.80;;;24.90;59.90;;;;;;10829865;33;20074;-74
2023/10/05 15:10:19;;;;;;;6.00;3.20;;;25.00;59.80;;;;;;10829566;33;20023;-74
2023/10/05 15:16:27;;;;;;;5.87;2.60;;;25.00;59.60;;;;;;10829461;33;20046;-75
2023/10/05 15:22:54;;;;;;;4.72;3.28;;;25.30;59.30;;;;;;10825868;32;20318;-74
2023/10/05 15:28:58;;;;;;;4.78;2.33;;;25.40;58.90;;;;;;10828094;33;20354;-74
2023/10/05 15:35:01;;;;;;;6.00;2.87;;;26.10;57.80;;;;;;10825441;33;20032;-74
2023/10/05 15:41:06;;;;;;;3.60;2.42;;;27.00;56.50;;;;;;10828682;33;20420;-75
2023/10/05 15:47:10;;;;;;;6.47;2.30;;;27.00;56.30;;;;;;10828664;32;20024;-74
2023/10/05 15:53:12;;;;;;;3.72;1.80;;;27.00;56.20;;;;;;10826908;33;20028;-75
2023/10/05 15:59:14;;;;;;;4.57;2.37;;;26.90;56.10;;;;;;10828487;32;20051;-75
2023/10/05 16:05:17;;;;;;;8.15;2.80;;;26.90;55.90;;;;;;10827813;33;20050;-74
2023/10/05 16:11:20;;;;;;;3.30;1.98;;;26.60;56.80;;;;;;10827652;33;20039;-74
2023/10/05 16:17:22;;;;;;;3.42;1.95;;;25.80;58.10;;;;;;10827742;33;20467;-75
2023/10/05 16:23:26;;;;;;;3.80;1.85;;;25.30;58.80;;;;;;10826734;33;20047;-75
2023/10/05 16:29:27;;;;;;;5.47;2.40;;;24.80;59.70;;;;;;10826047;33;20349;-75
2023/10/05 16:35:29;;;;;;;4.05;2.10;;;24.40;60.60;;;;;;10827096;33;20020;-74
2023/10/05 16:41:32;;;;;;;1.45;1.25;;;24.10;60.80;;;;;;10825416;33;20078;-74
2023/10/05 16:47:34;;;;;;;5.60;2.22;;;24.00;61.20;;;;;;10826875;32;20047;-74
2023/10/05 16:53:36;;;;;;;6.07;3.08;;;23.80;61.40;;;;;;10825625;33;20044;-74
2023/10/05 16:59:39;;;;;;;2.15;1.60;;;23.70;61.70;;;;;;10826654;33;20017;-75
2023/10/05 17:05:41;;;;;;;3.40;1.80;;;23.50;61.90;;;;;;10826473;33;20047;-74
2023/10/05 17:11:43;;;;;;;4.00;1.83;;;23.40;62.40;;;;;;10825681;32;20042;-74
2023/10/05 17:17:46;;;;;;;2.30;1.15;;;23.30;62.70;;;;;;10826131;33;20024;-75
2023/10/05 17:23:48;;;;;;;9.68;1.65;;;23.20;63.20;;;;;;10825965;33;20008;-74
2023/10/05 17:29:51;;;;;;;3.92;2.15;;;23.00;64.30;;;;;;10825673;33;20043;-74
2023/10/05 17:35:53;;;;;;;2.08;1.42;;;22.90;64.50;;;;;;10825459;33;20061;-75
2023/10/05 17:41:56;;;;;;;3.15;1.80;;;22.90;64.80;;;;;;10825476;33;20046;-74
2023/10/05 17:48:15;;;;;;;4.35;1.73;;;22.80;65.10;;;;;;10825265;33;20043;-75
2023/10/05 17:54:17;;;;;;;2.22;1.17;;;22.80;65.40;;;;;;10825033;33;20024;-74
2023/10/05 18:00:19;;;;;;;2.15;1.30;;;22.70;66.10;;;;;;10824691;33;20032;-74
2023/10/05 18:06:26;;;;;;;2.67;1.67;;;22.70;66.60;;;;;;10859639;32;20342;-74
2023/10/05 18:12:28;;;;;;;1.58;1.15;;;22.60;67.40;;;;;;10792280;33;20051;-75
2023/10/05 18:18:30;;;;;;;2.67;1.83;;;22.50;68.10;;;;;;10777165;33;20058;-75
2023/10/05 18:24:33;;;;;;;3.30;1.95;;;22.50;68.30;;;;;;10794493;33;20020;-75
2023/10/05 18:30:39;;;;;;;2.30;1.48;;;22.50;68.30;;;;;;10779620;33;20028;-75
2023/10/05 18:36:41;;;;;;;3.92;1.98;;;22.50;68.50;;;;;;10783097;33;20036;-75
2023/10/05 18:42:44;;;;;;;3.33;1.77;;;22.40;68.80;;;;;;10782826;33;20362;-75
2023/10/05 18:48:46;;;;;;;3.42;1.50;;;22.30;68.80;;;;;;10780865;33;20066;-75
2023/10/05 18:54:48;;;;;;;2.50;1.45;;;22.30;68.70;;;;;;10782628;33;20031;-75
2023/10/05 19:00:55;;;;;;;2.90;1.75;;;22.30;69.00;;;;;;10782376;33;20025;-75
2023/10/05 19:06:57;;;;;;;3.15;1.87;;;22.30;69.10;;;;;;10779935;33;20444;-75
2023/10/05 19:12:59;;;;;;;4.37;1.45;;;22.30;69.20;;;;;;10782277;33;20028;-75
2023/10/05 19:19:01;;;;;;;5.80;2.12;;;22.20;69.30;;;;;;10782163;33;20051;-75
2023/10/05 19:25:04;;;;;;;2.58;1.48;;;22.20;69.70;;;;;;10781821;33;20024;-74
2023/10/05 19:31:14;;;;;;;8.45;1.80;;;22.10;69.70;;;;;;10783801;33;20025;-75
2023/10/05 19:37:16;;;;;;;4.05;1.95;;;22.10;70.10;;;;;;10792450;33;20474;-75
2023/10/05 19:43:18;;;;;;;3.92;1.77;;;22.10;70.10;;;;;;10829323;33;20342;-74
2023/10/05 19:49:27;;;;;;;4.90;1.37;;;22.00;70.00;;;;;;10818515;33;20410;-75
2023/10/05 19:55:29;;;;;;;;;;;22.00;70.00;;;;;;10801505;33;20055;-73
2023/10/05 20:01:31;;;;;;;2.80;1.62;;;22.00;70.60;;;;;;10828963;33;19924;-75
2023/10/05 20:07:33;;;;;;;3.65;2.35;;;21.90;70.80;;;;;;10828611;33;20021;-75
2023/10/05 20:13:38;;;;;;;4.05;2.25;;;21.80;71.40;;;;;;10824368;33;20027;-75
2023/10/05 20:19:40;;;;;;;2.40;1.62;;;21.80;71.50;;;;;;10826813;33;20020;-75
2023/10/05 20:25:42;;;;;;;3.03;2.25;;;21.80;71.50;;;;;;10824940;33;20433;-75
2023/10/05 20:31:44;;;;;;;4.60;2.60;;;21.80;72.30;;;;;;10826786;33;20047;-75
2023/10/05 20:37:47;;;;;;;4.62;2.60;;;21.70;72.60;;;;;;10826438;33;20028;-75
2023/10/05 20:43:49;;;;;;;5.60;2.17;;;21.70;72.50;;;;;;10823172;33;20020;-75
2023/10/05 20:49:51;;;;;;;3.12;2.15;;;21.60;72.60;;;;;;10826979;33;20308;-75
2023/10/05 20:55:53;;;;;;;6.57;2.80;;;21.50;72.80;;;;;;10826734;33;20028;-75
2023/10/05 21:01:59;;;;;;;2.28;1.67;;;21.50;73.90;;;;;;10826816;33;20016;-75
2023/10/05 21:08:02;;;;;;;5.40;2.37;;;21.40;74.60;;;;;;10817201;33;20024;-75
2023/10/05 21:14:04;;;;;;;6.37;3.97;;;21.30;75.10;;;;;;10801158;33;20440;-75
2023/10/05 21:20:08;;;;;;;5.12;3.20;;;21.30;75.50;;;;;;10825715;33;20032;-75
2023/10/05 21:26:11;;;;;;;4.70;3.00;;;21.20;75.30;;;;;;10822565;33;20381;-75
2023/10/05 21:32:13;;;;;;;11.70;4.72;;;21.20;75.20;;;;;;10825871;33;20012;-75
2023/10/05 21:38:15;;;;;;;7.25;3.28;;;21.20;75.20;;;;;;10826079;33;20424;-75
2023/10/05 21:44:17;;;;;;;5.65;3.22;;;21.20;75.20;;;;;;10825493;33;20016;-75
2023/10/05 21:50:19;;;;;;;6.60;3.78;;;21.20;75.20;;;;;;10825805;33;20427;-75
2023/10/05 21:56:22;;;;;;;6.87;4.03;;;21.10;75.30;;;;;;10825516;32;20051;-75
2023/10/05 22:02:25;;;;;;;12.48;3.55;;;21.10;75.30;;;;;;10825610;33;20020;-75
2023/10/05 22:08:27;;;;;;;6.00;3.33;;;21.00;75.50;;;;;;10827114;33;20034;-75
2023/10/05 22:14:30;;;;;;;8.38;4.53;;;21.00;75.60;;;;;;10825144;33;20020;-75
2023/10/05 22:20:32;;;;;;;5.80;3.28;;;21.00;75.90;;;;;;10825319;33;20043;-75
2023/10/05 22:26:34;;;;;;;9.10;4.43;;;21.00;76.10;;;;;;10824977;33;20012;-75
2023/10/05 22:32:37;;;;;;;6.55;4.60;;;20.90;76.40;;;;;;10825391;33;20330;-75
2023/10/05 22:39:02;;;;;;;7.40;5.32;;;20.90;76.40;;;;;;10825472;33;20386;-75
2023/10/05 22:45:05;;;;;;;7.35;4.45;;;20.90;76.20;;;;;;10824651;33;20024;-75
2023/10/05 22:51:14;;;;;;;7.90;4.85;;;20.80;76.40;;;;;;10717764;27;7380325;-75
2023/10/05 22:57:17;;;;;;;7.82;4.47;;;20.80;76.30;;;;;;10980299;32;20042;-75
2023/10/05 23:03:31;;;;;;;9.68;4.55;;;20.70;76.50;;;;;;10979753;32;20010;-75
2023/10/05 23:09:36;;;;;;;7.22;4.20;;;20.80;76.50;;;;;;10986805;32;20045;-75
2023/10/05 23:15:38;;;;;;;5.93;3.90;;;20.70;76.60;;;;;;10986290;32;20045;-75
2023/10/05 23:21:41;;;;;;;7.87;5.05;;;20.70;76.80;;;;;;10985529;32;20015;-75
2023/10/05 23:27:48;;;;;;;4.25;3.08;;;20.60;76.90;;;;;;10985625;32;20042;-75
2023/10/05 23:33:50;;;;;;;10.50;5.10;;;20.60;77.10;;;;;;10985425;32;20015;-75
2023/10/05 23:39:52;;;;;;;8.38;5.07;;;20.50;77.30;;;;;;10985771;32;20337;-75
2023/10/05 23:45:55;;;;;;;5.12;3.83;;;20.50;77.30;;;;;;10985449;32;20015;-75
2023/10/05 23:51:58;;;;;;;9.85;4.75;;;20.50;77.40;;;;;;10848290;32;20016;-75
2023/10/05 23:58:00;;;;;;;8.65;4.05;;;20.50;77.60;;;;;;10828634;33;20008;-75
